sensor_id;sensor_type;location;lat;lon;timestamp;P1;durP1;ratioP1;P2;durP2;ratioP2
23684;SDS011;12020;51.384;6.908;2022-11-10T00:00:39;8.07;;;2.47;;
23684;SDS011;12020;51.384;6.908;2022-11-10T00:03:07;7.05;;;2.47;;
23684;SDS011;12020;51.384;6.908;2022-11-10T00:05:38;6.10;;;2.20;;
23684;SDS011;12020;51.384;6.908;2022-11-10T00:08:11;6.18;;;2.53;;
23684;SDS011;12020;51.384;6.908;2022-11-10T00:10:47;7.17;;;2.40;;
23684;SDS011;12020;51.384;6.908;2022-11-10T00:13:31;6.85;;;2.55;;
23684;SDS011;12020;51.384;6.908;2022-11-10T00:16:18;7.72;;;2.63;;
23684;SDS011;12020;51.384;6.908;2022-11-10T00:19:02;8.00;;;2.50;;
23684;SDS011;12020;51.384;6.908;2022-11-10T00:21:31;8.43;;;2.60;;
23684;SDS011;12020;51.384;6.908;2022-11-10T00:23:57;5.90;;;2.22;;
23684;SDS011;12020;51.384;6.908;2022-11-10T00:26:24;7.68;;;2.75;;
23684;SDS011;12020;51.384;6.908;2022-11-10T00:31:21;10.13;;;2.67;;
23684;SDS011;12020;51.384;6.908;2022-11-10T00:33:48;6.72;;;2.50;;
23684;SDS011;12020;51.384;6.908;2022-11-10T00:41:24;6.70;;;2.42;;
23684;SDS011;12020;51.384;6.908;2022-11-10T00:43:55;9.77;;;2.45;;
23684;SDS011;12020;51.384;6.908;2022-11-10T00:46:21;5.80;;;2.10;;
23684;SDS011;12020;51.384;6.908;2022-11-10T00:48:50;6.57;;;2.30;;
23684;SDS011;12020;51.384;6.908;2022-11-10T00:51:22;7.63;;;3.20;;
23684;SDS011;12020;51.384;6.908;2022-11-10T00:53:50;7.03;;;2.25;;
23684;SDS011;12020;51.384;6.908;2022-11-10T00:56:16;9.80;;;2.45;;
23684;SDS011;12020;51.384;6.908;2022-11-10T00:58:44;6.45;;;2.30;;
23684;SDS011;12020;51.384;6.908;2022-11-10T01:01:18;9.30;;;2.60;;
23684;SDS011;12020;51.384;6.908;2022-11-10T01:03:47;8.60;;;2.42;;
23684;SDS011;12020;51.384;6.908;2022-11-10T01:06:14;9.00;;;2.63;;
23684;SDS011;12020;51.384;6.908;2022-11-10T01:08:43;6.95;;;2.10;;
23684;SDS011;12020;51.384;6.908;2022-11-10T01:13:48;6.63;;;2.10;;
23684;SDS011;12020;51.384;6.908;2022-11-10T01:19:02;9.88;;;2.42;;
23684;SDS011;12020;51.384;6.908;2022-11-10T01:26:28;10.50;;;2.50;;
23684;SDS011;12020;51.384;6.908;2022-11-10T01:28:58;6.80;;;2.10;;
23684;SDS011;12020;51.384;6.908;2022-11-10T01:31:32;5.90;;;2.03;;
23684;SDS011;12020;51.384;6.908;2022-11-10T01:36:28;8.82;;;2.15;;
23684;SDS011;12020;51.384;6.908;2022-11-10T01:41:50;9.73;;;2.63;;
23684;SDS011;12020;51.384;6.908;2022-11-10T01:44:17;9.80;;;2.40;;
23684;SDS011;12020;51.384;6.908;2022-11-10T01:46:53;8.13;;;2.50;;
23684;SDS011;12020;51.384;6.908;2022-11-10T01:49:20;8.60;;;2.42;;
23684;SDS011;12020;51.384;6.908;2022-11-10T01:55:14;7.82;;;1.85;;
23684;SDS011;12020;51.384;6.908;2022-11-10T01:57:49;6.77;;;2.10;;
23684;SDS011;12020;51.384;6.908;2022-11-10T02:00:17;6.90;;;2.17;;
23684;SDS011;12020;51.384;6.908;2022-11-10T02:05:37;8.98;;;2.45;;
23684;SDS011;12020;51.384;6.908;2022-11-10T02:08:12;7.60;;;2.35;;
23684;SDS011;12020;51.384;6.908;2022-11-10T02:10:40;8.27;;;2.20;;
23684;SDS011;12020;51.384;6.908;2022-11-10T02:13:12;8.93;;;2.60;;
23684;SDS011;12020;51.384;6.908;2022-11-10T02:15:38;8.77;;;2.65;;
23684;SDS011;12020;51.384;6.908;2022-11-10T02:18:05;5.65;;;2.40;;
23684;SDS011;12020;51.384;6.908;2022-11-10T02:20:48;8.13;;;2.33;;
23684;SDS011;12020;51.384;6.908;2022-11-10T02:26:13;10.67;;;2.80;;
23684;SDS011;12020;51.384;6.908;2022-11-10T02:28:45;7.90;;;2.22;;
23684;SDS011;12020;51.384;6.908;2022-11-10T02:31:12;7.38;;;2.30;;
23684;SDS011;12020;51.384;6.908;2022-11-10T02:33:45;10.55;;;2.60;;
23684;SDS011;12020;51.384;6.908;2022-11-10T02:36:11;10.45;;;2.45;;
23684;SDS011;12020;51.384;6.908;2022-11-10T02:38:41;8.10;;;2.33;;
23684;SDS011;12020;51.384;6.908;2022-11-10T02:41:15;9.38;;;2.45;;
23684;SDS011;12020;51.384;6.908;2022-11-10T02:43:48;7.85;;;2.35;;
23684;SDS011;12020;51.384;6.908;2022-11-10T02:46:17;9.43;;;2.50;;
23684;SDS011;12020;51.384;6.908;2022-11-10T02:48:45;7.20;;;2.40;;
23684;SDS011;12020;51.384;6.908;2022-11-10T02:51:18;8.20;;;2.55;;
23684;SDS011;12020;51.384;6.908;2022-11-10T02:56:28;10.15;;;2.28;;
23684;SDS011;12020;51.384;6.908;2022-11-10T02:58:55;10.15;;;2.90;;
23684;SDS011;12020;51.384;6.908;2022-11-10T03:01:23;9.70;;;2.88;;
23684;SDS011;12020;51.384;6.908;2022-11-10T03:06:21;7.43;;;2.33;;
23684;SDS011;12020;51.384;6.908;2022-11-10T04:08:21;8.57;;;2.40;;
23684;SDS011;12020;51.384;6.908;2022-11-10T04:19:14;8.70;;;2.90;;
23684;SDS011;12020;51.384;6.908;2022-11-10T04:24:27;8.88;;;2.70;;
23684;SDS011;12020;51.384;6.908;2022-11-10T04:27:18;9.88;;;2.63;;
23684;SDS011;12020;51.384;6.908;2022-11-10T04:30:04;7.63;;;2.60;;
23684;SDS011;12020;51.384;6.908;2022-11-10T05:31:26;9.27;;;2.50;;
23684;SDS011;12020;51.384;6.908;2022-11-10T05:34:07;10.90;;;2.65;;
23684;SDS011;12020;51.384;6.908;2022-11-10T05:36:56;9.63;;;2.80;;
23684;SDS011;12020;51.384;6.908;2022-11-10T05:39:35;8.73;;;2.35;;
23684;SDS011;12020;51.384;6.908;2022-11-10T05:42:21;9.60;;;2.38;;
23684;SDS011;12020;51.384;6.908;2022-11-10T05:47:54;8.87;;;2.50;;
23684;SDS011;12020;51.384;6.908;2022-11-10T05:50:25;10.63;;;2.65;;
23684;SDS011;12020;51.384;6.908;2022-11-10T05:53:06;9.70;;;2.78;;
23684;SDS011;12020;51.384;6.908;2022-11-10T05:55:39;9.38;;;2.65;;
23684;SDS011;12020;51.384;6.908;2022-11-10T06:00:58;8.20;;;2.33;;
23684;SDS011;12020;51.384;6.908;2022-11-10T06:06:14;9.77;;;2.60;;
23684;SDS011;12020;51.384;6.908;2022-11-10T06:08:42;15.10;;;2.80;;
23684;SDS011;12020;51.384;6.908;2022-11-10T06:11:26;10.63;;;2.53;;
23684;SDS011;12020;51.384;6.908;2022-11-10T06:49:28;10.17;;;2.83;;
23684;SDS011;12020;51.384;6.908;2022-11-10T06:52:01;9.75;;;2.88;;
23684;SDS011;12020;51.384;6.908;2022-11-10T06:54:39;12.38;;;2.70;;
23684;SDS011;12020;51.384;6.908;2022-11-10T06:57:19;10.57;;;2.60;;
23684;SDS011;12020;51.384;6.908;2022-11-10T06:59:52;9.30;;;2.58;;
23684;SDS011;12020;51.384;6.908;2022-11-10T07:02:18;8.98;;;2.55;;
23684;SDS011;12020;51.384;6.908;2022-11-10T07:04:44;11.38;;;3.05;;
23684;SDS011;12020;51.384;6.908;2022-11-10T07:07:10;9.90;;;2.70;;
23684;SDS011;12020;51.384;6.908;2022-11-10T07:09:36;9.23;;;2.58;;
23684;SDS011;12020;51.384;6.908;2022-11-10T07:12:02;9.93;;;2.63;;
23684;SDS011;12020;51.384;6.908;2022-11-10T07:14:29;8.70;;;2.67;;
23684;SDS011;12020;51.384;6.908;2022-11-10T07:16:55;9.75;;;2.80;;
23684;SDS011;12020;51.384;6.908;2022-11-10T07:19:20;11.50;;;2.88;;
23684;SDS011;12020;51.384;6.908;2022-11-10T07:21:46;11.97;;;3.03;;
23684;SDS011;12020;51.384;6.908;2022-11-10T07:24:11;11.23;;;2.80;;
23684;SDS011;12020;51.384;6.908;2022-11-10T07:26:37;10.83;;;2.80;;
23684;SDS011;12020;51.384;6.908;2022-11-10T07:29:03;11.33;;;2.60;;
23684;SDS011;12020;51.384;6.908;2022-11-10T07:31:28;10.00;;;2.70;;
23684;SDS011;12020;51.384;6.908;2022-11-10T07:33:54;9.63;;;2.50;;
23684;SDS011;12020;51.384;6.908;2022-11-10T07:36:20;11.47;;;2.77;;
23684;SDS011;12020;51.384;6.908;2022-11-10T07:38:45;12.40;;;3.03;;
23684;SDS011;12020;51.384;6.908;2022-11-10T07:41:11;13.38;;;3.15;;
23684;SDS011;12020;51.384;6.908;2022-11-10T07:43:36;10.88;;;2.58;;
23684;SDS011;12020;51.384;6.908;2022-11-10T07:46:02;10.55;;;2.80;;
23684;SDS011;12020;51.384;6.908;2022-11-10T07:48:28;11.75;;;2.70;;
23684;SDS011;12020;51.384;6.908;2022-11-10T07:51:03;9.70;;;2.60;;
23684;SDS011;12020;51.384;6.908;2022-11-10T07:53:31;12.77;;;2.90;;
23684;SDS011;12020;51.384;6.908;2022-11-10T08:03:41;9.95;;;2.85;;
23684;SDS011;12020;51.384;6.908;2022-11-10T08:06:42;8.95;;;2.45;;
23684;SDS011;12020;51.384;6.908;2022-11-10T08:09:14;9.47;;;2.73;;
23684;SDS011;12020;51.384;6.908;2022-11-10T08:14:33;10.80;;;2.80;;
23684;SDS011;12020;51.384;6.908;2022-11-10T08:17:01;9.82;;;3.08;;
23684;SDS011;12020;51.384;6.908;2022-11-10T08:19:31;11.85;;;3.00;;
23684;SDS011;12020;51.384;6.908;2022-11-10T08:22:23;11.20;;;2.70;;
23684;SDS011;12020;51.384;6.908;2022-11-10T08:25:02;10.93;;;2.88;;
23684;SDS011;12020;51.384;6.908;2022-11-10T08:27:48;11.48;;;2.70;;
23684;SDS011;12020;51.384;6.908;2022-11-10T08:33:19;11.73;;;2.88;;
23684;SDS011;12020;51.384;6.908;2022-11-10T08:35:47;9.23;;;2.95;;
23684;SDS011;12020;51.384;6.908;2022-11-10T08:38:22;11.35;;;2.72;;
23684;SDS011;12020;51.384;6.908;2022-11-10T08:40:51;10.38;;;3.15;;
23684;SDS011;12020;51.384;6.908;2022-11-10T08:43:23;11.20;;;2.92;;
23684;SDS011;12020;51.384;6.908;2022-11-10T08:45:52;10.77;;;3.03;;
23684;SDS011;12020;51.384;6.908;2022-11-10T08:48:46;11.00;;;3.00;;
23684;SDS011;12020;51.384;6.908;2022-11-10T08:51:27;9.48;;;3.20;;
23684;SDS011;12020;51.384;6.908;2022-11-10T08:53:56;10.32;;;2.90;;
23684;SDS011;12020;51.384;6.908;2022-11-10T08:56:27;10.38;;;3.15;;
23684;SDS011;12020;51.384;6.908;2022-11-10T08:59:15;8.87;;;2.87;;
23684;SDS011;12020;51.384;6.908;2022-11-10T09:02:09;10.35;;;3.17;;
23684;SDS011;12020;51.384;6.908;2022-11-10T09:05:17;13.48;;;3.63;;
23684;SDS011;12020;51.384;6.908;2022-11-10T09:07:54;10.35;;;3.13;;
23684;SDS011;12020;51.384;6.908;2022-11-10T09:10:19;10.30;;;3.10;;
23684;SDS011;12020;51.384;6.908;2022-11-10T09:13:11;9.82;;;3.40;;
23684;SDS011;12020;51.384;6.908;2022-11-10T09:15:38;11.65;;;3.58;;
23684;SDS011;12020;51.384;6.908;2022-11-10T09:21:08;11.45;;;3.15;;
23684;SDS011;12020;51.384;6.908;2022-11-10T09:26:59;11.00;;;3.47;;
23684;SDS011;12020;51.384;6.908;2022-11-10T09:57:32;10.77;;;2.72;;
23684;SDS011;12020;51.384;6.908;2022-11-10T10:17:03;12.77;;;2.93;;
23684;SDS011;12020;51.384;6.908;2022-11-10T10:22:16;12.23;;;2.75;;
23684;SDS011;12020;51.384;6.908;2022-11-10T10:24:48;11.77;;;2.80;;
23684;SDS011;12020;51.384;6.908;2022-11-10T10:27:21;10.07;;;2.50;;
23684;SDS011;12020;51.384;6.908;2022-11-10T10:29:50;8.32;;;2.30;;
23684;SDS011;12020;51.384;6.908;2022-11-10T10:32:17;13.07;;;2.97;;
23684;SDS011;12020;51.384;6.908;2022-11-10T10:34:45;10.18;;;2.70;;
23684;SDS011;12020;51.384;6.908;2022-11-10T10:37:21;15.18;;;2.92;;
23684;SDS011;12020;51.384;6.908;2022-11-10T10:39:51;9.25;;;2.45;;
23684;SDS011;12020;51.384;6.908;2022-11-10T10:42:35;11.30;;;2.70;;
23684;SDS011;12020;51.384;6.908;2022-11-10T10:45:21;10.60;;;2.53;;
23684;SDS011;12020;51.384;6.908;2022-11-10T10:50:29;8.55;;;2.30;;
23684;SDS011;12020;51.384;6.908;2022-11-10T10:58:51;9.10;;;2.40;;
23684;SDS011;12020;51.384;6.908;2022-11-10T11:01:32;10.50;;;2.20;;
23684;SDS011;12020;51.384;6.908;2022-11-10T11:04:24;12.85;;;3.05;;
23684;SDS011;12020;51.384;6.908;2022-11-10T11:07:04;11.03;;;2.60;;
23684;SDS011;12020;51.384;6.908;2022-11-10T11:14:46;8.88;;;2.33;;
23684;SDS011;12020;51.384;6.908;2022-11-10T11:17:20;11.55;;;2.55;;
23684;SDS011;12020;51.384;6.908;2022-11-10T11:19:46;10.93;;;2.80;;
23684;SDS011;12020;51.384;6.908;2022-11-10T11:28:13;10.15;;;2.50;;
23684;SDS011;12020;51.384;6.908;2022-11-10T11:31:14;8.23;;;2.22;;
23684;SDS011;12020;51.384;6.908;2022-11-10T11:37:03;8.70;;;2.05;;
23684;SDS011;12020;51.384;6.908;2022-11-10T11:45:22;10.32;;;2.60;;
23684;SDS011;12020;51.384;6.908;2022-11-10T11:51:41;9.50;;;2.38;;
23684;SDS011;12020;51.384;6.908;2022-11-10T11:57:57;8.88;;;2.13;;
23684;SDS011;12020;51.384;6.908;2022-11-10T12:00:11;6.68;;;1.77;;
23684;SDS011;12020;51.384;6.908;2022-11-10T12:06:09;8.50;;;2.40;;
23684;SDS011;12020;51.384;6.908;2022-11-10T12:09:00;9.23;;;2.00;;
23684;SDS011;12020;51.384;6.908;2022-11-10T12:14:39;8.13;;;2.00;;
23684;SDS011;12020;51.384;6.908;2022-11-10T12:17:36;6.82;;;1.75;;
23684;SDS011;12020;51.384;6.908;2022-11-10T12:26:52;8.17;;;2.03;;
23684;SDS011;12020;51.384;6.908;2022-11-10T12:29:50;6.63;;;1.55;;
23684;SDS011;12020;51.384;6.908;2022-11-10T12:32:49;7.57;;;1.80;;
23684;SDS011;12020;51.384;6.908;2022-11-10T12:35:41;7.65;;;1.73;;
23684;SDS011;12020;51.384;6.908;2022-11-10T12:38:15;7.20;;;1.90;;
23684;SDS011;12020;51.384;6.908;2022-11-10T12:41:08;5.63;;;1.60;;
23684;SDS011;12020;51.384;6.908;2022-11-10T12:46:42;6.15;;;1.50;;
23684;SDS011;12020;51.384;6.908;2022-11-10T12:49:16;7.82;;;1.67;;
23684;SDS011;12020;51.384;6.908;2022-11-10T12:52:23;8.63;;;2.00;;
23684;SDS011;12020;51.384;6.908;2022-11-10T12:55:14;6.75;;;1.65;;
23684;SDS011;12020;51.384;6.908;2022-11-10T12:58:09;5.47;;;1.60;;
23684;SDS011;12020;51.384;6.908;2022-11-10T13:00:41;5.35;;;1.30;;
23684;SDS011;12020;51.384;6.908;2022-11-10T13:03:35;7.13;;;1.63;;
23684;SDS011;12020;51.384;6.908;2022-11-10T13:06:21;7.47;;;1.70;;
23684;SDS011;12020;51.384;6.908;2022-11-10T13:09:21;6.10;;;1.40;;
23684;SDS011;12020;51.384;6.908;2022-11-10T13:12:17;4.97;;;1.50;;
23684;SDS011;12020;51.384;6.908;2022-11-10T13:15:49;5.25;;;1.50;;
23684;SDS011;12020;51.384;6.908;2022-11-10T13:19:08;5.50;;;1.40;;
23684;SDS011;12020;51.384;6.908;2022-11-10T13:22:10;5.38;;;1.40;;
23684;SDS011;12020;51.384;6.908;2022-11-10T13:25:41;5.35;;;1.73;;
23684;SDS011;12020;51.384;6.908;2022-11-10T13:28:07;5.28;;;1.48;;
23684;SDS011;12020;51.384;6.908;2022-11-10T13:45:46;8.23;;;1.70;;
23684;SDS011;12020;51.384;6.908;2022-11-10T13:51:38;6.97;;;1.80;;
23684;SDS011;12020;51.384;6.908;2022-11-10T13:57:25;5.78;;;1.60;;
23684;SDS011;12020;51.384;6.908;2022-11-10T14:00:39;6.15;;;2.05;;
23684;SDS011;12020;51.384;6.908;2022-11-10T14:06:14;6.82;;;1.63;;
23684;SDS011;12020;51.384;6.908;2022-11-10T14:08:47;5.05;;;1.50;;
23684;SDS011;12020;51.384;6.908;2022-11-10T14:11:48;6.70;;;1.80;;
23684;SDS011;12020;51.384;6.908;2022-11-10T14:17:23;8.10;;;1.85;;
23684;SDS011;12020;51.384;6.908;2022-11-10T14:19:56;5.15;;;1.33;;
23684;SDS011;12020;51.384;6.908;2022-11-10T14:25:22;5.43;;;1.50;;
23684;SDS011;12020;51.384;6.908;2022-11-10T14:28:00;7.32;;;1.60;;
23684;SDS011;12020;51.384;6.908;2022-11-10T14:30:52;6.15;;;1.63;;
23684;SDS011;12020;51.384;6.908;2022-11-10T14:33:29;5.97;;;1.50;;
23684;SDS011;12020;51.384;6.908;2022-11-10T14:35:58;4.78;;;1.50;;
23684;SDS011;12020;51.384;6.908;2022-11-10T14:38:36;6.15;;;1.63;;
23684;SDS011;12020;51.384;6.908;2022-11-10T14:41:26;6.78;;;1.55;;
23684;SDS011;12020;51.384;6.908;2022-11-10T14:44:20;6.75;;;1.80;;
23684;SDS011;12020;51.384;6.908;2022-11-10T14:47:23;4.28;;;1.40;;
23684;SDS011;12020;51.384;6.908;2022-11-10T14:53:02;6.75;;;1.80;;
23684;SDS011;12020;51.384;6.908;2022-11-10T14:56:01;6.97;;;1.90;;
23684;SDS011;12020;51.384;6.908;2022-11-10T14:59:00;7.22;;;1.95;;
23684;SDS011;12020;51.384;6.908;2022-11-10T15:01:58;5.35;;;1.63;;
23684;SDS011;12020;51.384;6.908;2022-11-10T15:04:49;5.07;;;1.58;;
23684;SDS011;12020;51.384;6.908;2022-11-10T15:07:45;5.43;;;1.42;;
23684;SDS011;12020;51.384;6.908;2022-11-10T15:10:27;7.90;;;1.60;;
23684;SDS011;12020;51.384;6.908;2022-11-10T15:15:41;4.93;;;1.80;;
23684;SDS011;12020;51.384;6.908;2022-11-10T15:18:26;5.20;;;1.50;;
23684;SDS011;12020;51.384;6.908;2022-11-10T15:21:04;5.43;;;1.80;;
23684;SDS011;12020;51.384;6.908;2022-11-10T15:23:46;4.88;;;1.60;;
23684;SDS011;12020;51.384;6.908;2022-11-10T15:26:38;7.32;;;1.60;;
23684;SDS011;12020;51.384;6.908;2022-11-10T15:29:29;4.57;;;1.70;;
23684;SDS011;12020;51.384;6.908;2022-11-10T15:32:23;6.00;;;1.60;;
23684;SDS011;12020;51.384;6.908;2022-11-10T15:37:58;5.82;;;1.77;;
23684;SDS011;12020;51.384;6.908;2022-11-10T15:45:52;6.22;;;1.52;;
23684;SDS011;12020;51.384;6.908;2022-11-10T15:48:23;6.45;;;1.50;;
23684;SDS011;12020;51.384;6.908;2022-11-10T15:50:51;4.22;;;1.45;;
23684;SDS011;12020;51.384;6.908;2022-11-10T15:55:59;5.68;;;1.40;;
23684;SDS011;12020;51.384;6.908;2022-11-10T15:58:25;5.90;;;1.63;;
23684;SDS011;12020;51.384;6.908;2022-11-10T16:00:54;4.78;;;1.60;;
23684;SDS011;12020;51.384;6.908;2022-11-10T16:03:21;4.55;;;1.75;;
23684;SDS011;12020;51.384;6.908;2022-11-10T16:05:48;5.85;;;1.80;;
23684;SDS011;12020;51.384;6.908;2022-11-10T16:08:18;6.70;;;1.65;;
23684;SDS011;12020;51.384;6.908;2022-11-10T16:10:53;5.97;;;1.70;;
23684;SDS011;12020;51.384;6.908;2022-11-10T16:13:25;5.43;;;1.42;;
23684;SDS011;12020;51.384;6.908;2022-11-10T16:15:56;6.13;;;1.52;;
23684;SDS011;12020;51.384;6.908;2022-11-10T16:18:26;6.68;;;2.03;;
23684;SDS011;12020;51.384;6.908;2022-11-10T16:20:54;4.82;;;1.52;;
23684;SDS011;12020;51.384;6.908;2022-11-10T16:23:20;5.57;;;1.95;;
23684;SDS011;12020;51.384;6.908;2022-11-10T16:25:58;4.33;;;1.57;;
23684;SDS011;12020;51.384;6.908;2022-11-10T16:28:25;3.87;;;1.50;;
23684;SDS011;12020;51.384;6.908;2022-11-10T16:30:54;6.23;;;1.77;;
23684;SDS011;12020;51.384;6.908;2022-11-10T16:33:30;6.20;;;1.43;;
23684;SDS011;12020;51.384;6.908;2022-11-10T16:36:18;4.97;;;1.60;;
23684;SDS011;12020;51.384;6.908;2022-11-10T16:38:56;6.18;;;1.90;;
23684;SDS011;12020;51.384;6.908;2022-11-10T16:41:49;5.30;;;1.90;;
23684;SDS011;12020;51.384;6.908;2022-11-10T16:44:20;4.43;;;1.77;;
23684;SDS011;12020;51.384;6.908;2022-11-10T16:47:07;4.88;;;1.65;;
23684;SDS011;12020;51.384;6.908;2022-11-10T16:49:42;7.32;;;2.13;;
23684;SDS011;12020;51.384;6.908;2022-11-10T16:52:13;5.25;;;1.65;;
23684;SDS011;12020;51.384;6.908;2022-11-10T16:54:40;5.47;;;2.10;;
23684;SDS011;12020;51.384;6.908;2022-11-10T16:57:09;4.93;;;1.60;;
23684;SDS011;12020;51.384;6.908;2022-11-10T16:59:37;4.30;;;1.67;;
23684;SDS011;12020;51.384;6.908;2022-11-10T17:02:03;4.45;;;1.60;;
23684;SDS011;12020;51.384;6.908;2022-11-10T17:04:35;5.05;;;1.67;;
23684;SDS011;12020;51.384;6.908;2022-11-10T17:07:01;5.72;;;1.90;;
23684;SDS011;12020;51.384;6.908;2022-11-10T17:09:27;4.80;;;1.83;;
23684;SDS011;12020;51.384;6.908;2022-11-10T17:11:54;6.28;;;1.83;;
23684;SDS011;12020;51.384;6.908;2022-11-10T17:14:20;7.13;;;2.20;;
23684;SDS011;12020;51.384;6.908;2022-11-10T17:16:46;5.45;;;2.03;;
23684;SDS011;12020;51.384;6.908;2022-11-10T17:19:20;5.83;;;2.00;;
23684;SDS011;12020;51.384;6.908;2022-11-10T17:21:49;6.80;;;2.45;;
23684;SDS011;12020;51.384;6.908;2022-11-10T17:24:17;6.47;;;2.55;;
23684;SDS011;12020;51.384;6.908;2022-11-10T17:26:44;5.75;;;2.10;;
23684;SDS011;12020;51.384;6.908;2022-11-10T17:29:14;6.30;;;2.10;;
23684;SDS011;12020;51.384;6.908;2022-11-10T17:31:42;4.63;;;1.80;;
23684;SDS011;12020;51.384;6.908;2022-11-10T17:34:08;7.40;;;1.90;;
23684;SDS011;12020;51.384;6.908;2022-11-10T17:36:34;5.87;;;1.80;;
23684;SDS011;12020;51.384;6.908;2022-11-10T17:38:59;5.53;;;2.00;;
23684;SDS011;12020;51.384;6.908;2022-11-10T17:41:26;7.13;;;2.17;;
23684;SDS011;12020;51.384;6.908;2022-11-10T17:43:52;7.18;;;2.53;;
23684;SDS011;12020;51.384;6.908;2022-11-10T17:46:17;7.57;;;1.90;;
23684;SDS011;12020;51.384;6.908;2022-11-10T17:48:44;4.97;;;1.93;;
23684;SDS011;12020;51.384;6.908;2022-11-10T17:51:13;4.82;;;1.70;;
23684;SDS011;12020;51.384;6.908;2022-11-10T17:53:43;5.20;;;1.90;;
23684;SDS011;12020;51.384;6.908;2022-11-10T17:56:08;7.38;;;2.35;;
23684;SDS011;12020;51.384;6.908;2022-11-10T17:58:34;7.13;;;1.80;;
23684;SDS011;12020;51.384;6.908;2022-11-10T18:01:16;5.95;;;1.95;;
23684;SDS011;12020;51.384;6.908;2022-11-10T18:06:34;5.15;;;2.22;;
23684;SDS011;12020;51.384;6.908;2022-11-10T18:09:00;4.88;;;1.77;;
23684;SDS011;12020;51.384;6.908;2022-11-10T18:11:29;5.15;;;1.80;;
23684;SDS011;12020;51.384;6.908;2022-11-10T18:16:26;5.50;;;1.92;;
23684;SDS011;12020;51.384;6.908;2022-11-10T18:18:53;4.43;;;1.98;;
23684;SDS011;12020;51.384;6.908;2022-11-10T18:21:20;5.30;;;2.25;;
23684;SDS011;12020;51.384;6.908;2022-11-10T18:23:47;7.53;;;2.17;;
23684;SDS011;12020;51.384;6.908;2022-11-10T18:26:19;4.97;;;2.00;;
23684;SDS011;12020;51.384;6.908;2022-11-10T18:28:45;5.80;;;1.90;;
23684;SDS011;12020;51.384;6.908;2022-11-10T18:31:15;3.78;;;2.00;;
23684;SDS011;12020;51.384;6.908;2022-11-10T18:33:44;5.77;;;1.87;;
23684;SDS011;12020;51.384;6.908;2022-11-10T18:39:12;5.85;;;2.17;;
23684;SDS011;12020;51.384;6.908;2022-11-10T18:41:41;3.90;;;2.10;;
23684;SDS011;12020;51.384;6.908;2022-11-10T18:44:27;4.07;;;1.95;;
23684;SDS011;12020;51.384;6.908;2022-11-10T18:46:59;5.45;;;2.15;;
23684;SDS011;12020;51.384;6.908;2022-11-10T18:52:20;6.00;;;2.40;;
23684;SDS011;12020;51.384;6.908;2022-11-10T18:54:46;6.43;;;2.28;;
23684;SDS011;12020;51.384;6.908;2022-11-10T18:57:12;6.73;;;2.50;;
23684;SDS011;12020;51.384;6.908;2022-11-10T18:59:40;5.38;;;2.50;;
23684;SDS011;12020;51.384;6.908;2022-11-10T19:02:07;5.57;;;2.13;;
23684;SDS011;12020;51.384;6.908;2022-11-10T19:04:37;5.97;;;2.33;;
23684;SDS011;12020;51.384;6.908;2022-11-10T19:07:03;5.03;;;2.35;;
23684;SDS011;12020;51.384;6.908;2022-11-10T19:09:29;5.63;;;2.47;;
23684;SDS011;12020;51.384;6.908;2022-11-10T19:11:55;5.00;;;2.50;;
23684;SDS011;12020;51.384;6.908;2022-11-10T19:14:21;5.00;;;2.47;;
23684;SDS011;12020;51.384;6.908;2022-11-10T19:16:46;5.87;;;2.50;;
23684;SDS011;12020;51.384;6.908;2022-11-10T19:19:12;7.50;;;2.90;;
23684;SDS011;12020;51.384;6.908;2022-11-10T19:21:38;7.87;;;2.77;;
23684;SDS011;12020;51.384;6.908;2022-11-10T19:24:04;6.03;;;2.70;;
23684;SDS011;12020;51.384;6.908;2022-11-10T19:26:31;7.38;;;2.90;;
23684;SDS011;12020;51.384;6.908;2022-11-10T19:28:57;7.95;;;3.05;;
23684;SDS011;12020;51.384;6.908;2022-11-10T19:31:23;6.75;;;2.90;;
23684;SDS011;12020;51.384;6.908;2022-11-10T19:33:51;6.45;;;2.50;;
23684;SDS011;12020;51.384;6.908;2022-11-10T19:36:19;7.45;;;2.70;;
23684;SDS011;12020;51.384;6.908;2022-11-10T19:38:46;6.75;;;2.65;;
23684;SDS011;12020;51.384;6.908;2022-11-10T19:41:13;6.70;;;2.60;;
23684;SDS011;12020;51.384;6.908;2022-11-10T19:43:52;6.47;;;2.70;;
23684;SDS011;12020;51.384;6.908;2022-11-10T19:46:23;6.80;;;2.53;;
23684;SDS011;12020;51.384;6.908;2022-11-10T19:48:52;5.93;;;2.30;;
23684;SDS011;12020;51.384;6.908;2022-11-10T19:51:21;5.90;;;2.85;;
23684;SDS011;12020;51.384;6.908;2022-11-10T19:53:52;5.10;;;2.35;;
23684;SDS011;12020;51.384;6.908;2022-11-10T20:03:08;5.70;;;2.60;;
23684;SDS011;12020;51.384;6.908;2022-11-10T20:08:29;6.60;;;2.65;;
23684;SDS011;12020;51.384;6.908;2022-11-10T20:10:59;6.85;;;2.80;;
23684;SDS011;12020;51.384;6.908;2022-11-10T20:13:28;6.67;;;2.90;;
23684;SDS011;12020;51.384;6.908;2022-11-10T20:15:54;5.95;;;2.67;;
23684;SDS011;12020;51.384;6.908;2022-11-10T20:18:19;4.60;;;2.63;;
23684;SDS011;12020;51.384;6.908;2022-11-10T20:20:47;6.37;;;2.70;;
23684;SDS011;12020;51.384;6.908;2022-11-10T20:23:12;4.47;;;2.72;;
23684;SDS011;12020;51.384;6.908;2022-11-10T20:25:40;5.43;;;2.95;;
23684;SDS011;12020;51.384;6.908;2022-11-10T20:28:07;4.65;;;2.50;;
23684;SDS011;12020;51.384;6.908;2022-11-10T20:30:34;4.83;;;2.60;;
23684;SDS011;12020;51.384;6.908;2022-11-10T20:33:03;5.40;;;2.90;;
23684;SDS011;12020;51.384;6.908;2022-11-10T20:35:30;6.13;;;2.92;;
23684;SDS011;12020;51.384;6.908;2022-11-10T20:37:56;6.70;;;2.80;;
23684;SDS011;12020;51.384;6.908;2022-11-10T20:40:22;5.50;;;3.50;;
23684;SDS011;12020;51.384;6.908;2022-11-10T20:42:49;6.40;;;3.35;;
23684;SDS011;12020;51.384;6.908;2022-11-10T20:45:15;6.13;;;3.30;;
23684;SDS011;12020;51.384;6.908;2022-11-10T20:47:41;6.17;;;3.47;;
23684;SDS011;12020;51.384;6.908;2022-11-10T20:50:07;5.07;;;3.20;;
23684;SDS011;12020;51.384;6.908;2022-11-10T20:52:33;5.85;;;3.67;;
23684;SDS011;12020;51.384;6.908;2022-11-10T20:55:00;5.90;;;3.40;;
23684;SDS011;12020;51.384;6.908;2022-11-10T20:57:26;6.45;;;3.78;;
23684;SDS011;12020;51.384;6.908;2022-11-10T20:59:53;6.28;;;4.00;;
23684;SDS011;12020;51.384;6.908;2022-11-10T21:02:20;7.50;;;3.80;;
23684;SDS011;12020;51.384;6.908;2022-11-10T21:04:46;7.60;;;4.28;;
23684;SDS011;12020;51.384;6.908;2022-11-10T21:07:13;7.35;;;4.25;;
23684;SDS011;12020;51.384;6.908;2022-11-10T21:09:40;9.40;;;4.80;;
23684;SDS011;12020;51.384;6.908;2022-11-10T21:12:05;7.65;;;4.07;;
23684;SDS011;12020;51.384;6.908;2022-11-10T21:14:52;7.63;;;4.13;;
23684;SDS011;12020;51.384;6.908;2022-11-10T21:17:17;6.53;;;4.10;;
23684;SDS011;12020;51.384;6.908;2022-11-10T21:19:43;8.10;;;4.50;;
23684;SDS011;12020;51.384;6.908;2022-11-10T21:22:11;5.93;;;4.63;;
23684;SDS011;12020;51.384;6.908;2022-11-10T21:24:37;8.15;;;4.50;;
23684;SDS011;12020;51.384;6.908;2022-11-10T21:27:07;7.15;;;4.30;;
23684;SDS011;12020;51.384;6.908;2022-11-10T21:29:34;7.67;;;4.73;;
23684;SDS011;12020;51.384;6.908;2022-11-10T21:32:00;7.47;;;4.27;;
23684;SDS011;12020;51.384;6.908;2022-11-10T21:34:26;7.93;;;4.63;;
23684;SDS011;12020;51.384;6.908;2022-11-10T21:36:52;6.60;;;4.35;;
23684;SDS011;12020;51.384;6.908;2022-11-10T21:39:18;8.43;;;4.53;;
23684;SDS011;12020;51.384;6.908;2022-11-10T21:41:45;10.17;;;4.80;;
23684;SDS011;12020;51.384;6.908;2022-11-10T21:44:13;8.52;;;4.70;;
23684;SDS011;12020;51.384;6.908;2022-11-10T21:46:39;8.02;;;4.70;;
23684;SDS011;12020;51.384;6.908;2022-11-10T21:49:04;6.00;;;4.15;;
23684;SDS011;12020;51.384;6.908;2022-11-10T21:51:31;8.07;;;4.50;;
23684;SDS011;12020;51.384;6.908;2022-11-10T21:53:57;6.97;;;4.38;;
23684;SDS011;12020;51.384;6.908;2022-11-10T21:56:23;7.57;;;4.60;;
23684;SDS011;12020;51.384;6.908;2022-11-10T21:58:50;7.55;;;4.30;;
23684;SDS011;12020;51.384;6.908;2022-11-10T22:01:17;7.30;;;4.10;;